sensor_id;sensor_type;location;lat;lon;timestamp;temperature;humidity
4356;DHT22;64374;51.482;7.408;2023-02-20T00:01:51;8.80;99.90
4356;DHT22;64374;51.482;7.408;2023-02-20T00:04:20;8.70;99.90
4356;DHT22;64374;51.482;7.408;2023-02-20T00:06:48;8.90;99.90
4356;DHT22;64374;51.482;7.408;2023-02-20T00:09:17;8.80;99.90
4356;DHT22;64374;51.482;7.408;2023-02-20T00:11:49;9.00;99.90
4356;DHT22;64374;51.482;7.408;2023-02-20T00:14:20;8.70;99.90
4356;DHT22;64374;51.482;7.408;2023-02-20T00:17:11;8.90;99.90
4356;DHT22;64374;51.482;7.408;2023-02-20T00:19:40;8.90;99.90
4356;DHT22;64374;51.482;7.408;2023-02-20T00:22:08;8.70;99.90
4356;DHT22;64374;51.482;7.408;2023-02-20T00:24:36;9.00;99.90
4356;DHT22;64374;51.482;7.408;2023-02-20T00:27:27;8.90;99.90
4356;DHT22;64374;51.482;7.408;2023-02-20T00:29:56;8.90;99.90
4356;DHT22;64374;51.482;7.408;2023-02-20T00:32:24;8.90;99.90
4356;DHT22;64374;51.482;7.408;2023-02-20T00:34:52;8.90;99.90
4356;DHT22;64374;51.482;7.408;2023-02-20T00:37:21;8.40;99.90
4356;DHT22;64374;51.482;7.408;2023-02-20T00:39:49;8.50;99.90
4356;DHT22;64374;51.482;7.408;2023-02-20T00:42:17;8.50;99.90
4356;DHT22;64374;51.482;7.408;2023-02-20T00:45:09;8.70;99.90
4356;DHT22;64374;51.482;7.408;2023-02-20T00:47:38;8.70;99.90
4356;DHT22;64374;51.482;7.408;2023-02-20T00:50:08;8.50;99.90
4356;DHT22;64374;51.482;7.408;2023-02-20T00:52:39;8.50;99.90
4356;DHT22;64374;51.482;7.408;2023-02-20T00:55:07;8.60;99.90
4356;DHT22;64374;51.482;7.408;2023-02-20T00:57:58;8.50;99.90
4356;DHT22;64374;51.482;7.408;2023-02-20T01:00:28;8.70;99.90
4356;DHT22;64374;51.482;7.408;2023-02-20T01:02:58;8.90;99.90
4356;DHT22;64374;51.482;7.408;2023-02-20T01:05:28;8.50;99.90
4356;DHT22;64374;51.482;7.408;2023-02-20T01:07:57;8.40;99.90
4356;DHT22;64374;51.482;7.408;2023-02-20T01:10:25;8.40;99.90
4356;DHT22;64374;51.482;7.408;2023-02-20T01:12:54;8.40;99.90
4356;DHT22;64374;51.482;7.408;2023-02-20T01:15:22;8.30;99.90
4356;DHT22;64374;51.482;7.408;2023-02-20T01:17:51;8.50;99.90
4356;DHT22;64374;51.482;7.408;2023-02-20T01:20:20;8.40;99.90
4356;DHT22;64374;51.482;7.408;2023-02-20T01:22:49;8.40;99.90
4356;DHT22;64374;51.482;7.408;2023-02-20T01:25:17;8.60;99.90
4356;DHT22;64374;51.482;7.408;2023-02-20T01:27:46;8.70;99.90
4356;DHT22;64374;51.482;7.408;2023-02-20T01:30:14;8.60;99.90
4356;DHT22;64374;51.482;7.408;2023-02-20T01:32:42;8.40;99.90
4356;DHT22;64374;51.482;7.408;2023-02-20T01:35:12;8.50;99.90
4356;DHT22;64374;51.482;7.408;2023-02-20T01:37:40;8.60;99.90
4356;DHT22;64374;51.482;7.408;2023-02-20T01:40:14;8.50;99.90
4356;DHT22;64374;51.482;7.408;2023-02-20T01:42:43;8.30;99.90
4356;DHT22;64374;51.482;7.408;2023-02-20T01:45:17;8.50;99.90
4356;DHT22;64374;51.482;7.408;2023-02-20T01:47:51;8.60;99.90
4356;DHT22;64374;51.482;7.408;2023-02-20T01:50:26;8.90;99.90
4356;DHT22;64374;51.482;7.408;2023-02-20T01:52:59;8.90;99.90
4356;DHT22;64374;51.482;7.408;2023-02-20T01:55:30;9.10;99.90
4356;DHT22;64374;51.482;7.408;2023-02-20T01:58:02;9.10;99.90
4356;DHT22;64374;51.482;7.408;2023-02-20T02:00:32;9.00;99.90
4356;DHT22;64374;51.482;7.408;2023-02-20T02:03:03;9.00;99.90
4356;DHT22;64374;51.482;7.408;2023-02-20T02:05:40;8.90;99.90
4356;DHT22;64374;51.482;7.408;2023-02-20T02:08:10;9.10;99.90
4356;DHT22;64374;51.482;7.408;2023-02-20T02:10:48;8.90;99.90
4356;DHT22;64374;51.482;7.408;2023-02-20T02:13:18;8.70;99.90
4356;DHT22;64374;51.482;7.408;2023-02-20T02:15:51;8.60;99.90
4356;DHT22;64374;51.482;7.408;2023-02-20T02:18:29;8.50;99.90
4356;DHT22;64374;51.482;7.408;2023-02-20T02:24:35;8.50;99.90
4356;DHT22;64374;51.482;7.408;2023-02-20T02:27:47;8.70;99.90
4356;DHT22;64374;51.482;7.408;2023-02-20T02:36:30;8.90;99.90
4356;DHT22;64374;51.482;7.408;2023-02-20T02:39:14;9.10;99.90
4356;DHT22;64374;51.482;7.408;2023-02-20T02:42:07;8.80;99.90
4356;DHT22;64374;51.482;7.408;2023-02-20T02:44:41;8.50;99.90
4356;DHT22;64374;51.482;7.408;2023-02-20T02:47:15;8.70;99.90
4356;DHT22;64374;51.482;7.408;2023-02-20T02:49:50;8.70;99.90
4356;DHT22;64374;51.482;7.408;2023-02-20T02:52:25;8.60;99.90
4356;DHT22;64374;51.482;7.408;2023-02-20T02:55:14;8.60;99.90
4356;DHT22;64374;51.482;7.408;2023-02-20T02:57:44;8.50;99.90
4356;DHT22;64374;51.482;7.408;2023-02-20T03:00:15;8.50;99.90
4356;DHT22;64374;51.482;7.408;2023-02-20T03:02:52;8.70;99.90
4356;DHT22;64374;51.482;7.408;2023-02-20T03:05:26;8.60;99.90
4356;DHT22;64374;51.482;7.408;2023-02-20T03:08:11;8.60;99.90
4356;DHT22;64374;51.482;7.408;2023-02-20T03:10:49;8.90;99.90
4356;DHT22;64374;51.482;7.408;2023-02-20T03:13:24;8.60;99.90
4356;DHT22;64374;51.482;7.408;2023-02-20T03:16:12;8.60;99.90
4356;DHT22;64374;51.482;7.408;2023-02-20T03:18:42;8.70;99.90
4356;DHT22;64374;51.482;7.408;2023-02-20T03:21:16;8.60;99.90
4356;DHT22;64374;51.482;7.408;2023-02-20T03:23:50;8.50;99.90
4356;DHT22;64374;51.482;7.408;2023-02-20T03:26:25;8.60;99.90
4356;DHT22;64374;51.482;7.408;2023-02-20T03:29:00;8.60;99.90
4356;DHT22;64374;51.482;7.408;2023-02-20T03:31:32;8.40;99.90
4356;DHT22;64374;51.482;7.408;2023-02-20T03:34:05;8.50;99.90
4356;DHT22;64374;51.482;7.408;2023-02-20T03:37:00;8.50;99.90
4356;DHT22;64374;51.482;7.408;2023-02-20T03:39:52;8.50;99.90
4356;DHT22;64374;51.482;7.408;2023-02-20T03:42:45;8.40;99.90
4356;DHT22;64374;51.482;7.408;2023-02-20T03:45:38;8.20;99.90
4356;DHT22;64374;51.482;7.408;2023-02-20T03:48:18;8.00;99.90
4356;DHT22;64374;51.482;7.408;2023-02-20T03:50:51;8.10;99.90
4356;DHT22;64374;51.482;7.408;2023-02-20T03:53:24;8.20;99.90
4356;DHT22;64374;51.482;7.408;2023-02-20T03:55:59;8.20;99.90
4356;DHT22;64374;51.482;7.408;2023-02-20T03:58:33;8.20;99.90
4356;DHT22;64374;51.482;7.408;2023-02-20T04:01:07;8.40;99.90
4356;DHT22;64374;51.482;7.408;2023-02-20T04:03:39;8.80;99.90
4356;DHT22;64374;51.482;7.408;2023-02-20T04:06:10;8.40;99.90
4356;DHT22;64374;51.482;7.408;2023-02-20T04:08:43;8.50;99.90
4356;DHT22;64374;51.482;7.408;2023-02-20T04:11:19;8.20;99.90
4356;DHT22;64374;51.482;7.408;2023-02-20T04:13:50;8.40;99.90
4356;DHT22;64374;51.482;7.408;2023-02-20T04:16:21;8.50;99.90
4356;DHT22;64374;51.482;7.408;2023-02-20T04:18:50;8.60;99.90
4356;DHT22;64374;51.482;7.408;2023-02-20T04:21:22;8.60;99.90
4356;DHT22;64374;51.482;7.408;2023-02-20T04:24:01;8.30;99.90
4356;DHT22;64374;51.482;7.408;2023-02-20T04:26:32;8.50;99.90
4356;DHT22;64374;51.482;7.408;2023-02-20T04:29:03;8.20;99.90
4356;DHT22;64374;51.482;7.408;2023-02-20T04:31:32;8.10;99.90
4356;DHT22;64374;51.482;7.408;2023-02-20T04:34:02;8.30;99.90
4356;DHT22;64374;51.482;7.408;2023-02-20T04:36:30;8.50;99.90
4356;DHT22;64374;51.482;7.408;2023-02-20T04:38:59;8.30;99.90
4356;DHT22;64374;51.482;7.408;2023-02-20T04:41:32;8.30;99.90
4356;DHT22;64374;51.482;7.408;2023-02-20T04:44:01;8.20;99.90
4356;DHT22;64374;51.482;7.408;2023-02-20T04:46:49;8.10;99.90
4356;DHT22;64374;51.482;7.408;2023-02-20T04:49:19;8.30;99.90
4356;DHT22;64374;51.482;7.408;2023-02-20T04:51:51;8.20;99.90
4356;DHT22;64374;51.482;7.408;2023-02-20T04:54:21;8.10;99.90
4356;DHT22;64374;51.482;7.408;2023-02-20T04:56:50;8.10;99.90
4356;DHT22;64374;51.482;7.408;2023-02-20T04:59:21;8.00;99.90
4356;DHT22;64374;51.482;7.408;2023-02-20T05:01:50;8.30;99.90
4356;DHT22;64374;51.482;7.408;2023-02-20T05:04:21;8.20;99.90
4356;DHT22;64374;51.482;7.408;2023-02-20T05:06:51;8.30;99.90
4356;DHT22;64374;51.482;7.408;2023-02-20T05:09:21;8.40;99.90
4356;DHT22;64374;51.482;7.408;2023-02-20T05:11:51;8.30;99.90
4356;DHT22;64374;51.482;7.408;2023-02-20T05:14:20;8.30;99.90
4356;DHT22;64374;51.482;7.408;2023-02-20T05:16:49;8.30;99.90
4356;DHT22;64374;51.482;7.408;2023-02-20T05:19:18;8.30;99.90
4356;DHT22;64374;51.482;7.408;2023-02-20T05:21:46;8.40;99.90
4356;DHT22;64374;51.482;7.408;2023-02-20T05:24:32;8.40;99.90
4356;DHT22;64374;51.482;7.408;2023-02-20T05:27:02;8.30;99.90
4356;DHT22;64374;51.482;7.408;2023-02-20T05:29:30;8.50;99.90
4356;DHT22;64374;51.482;7.408;2023-02-20T05:31:58;8.50;99.90
4356;DHT22;64374;51.482;7.408;2023-02-20T05:34:27;8.30;99.90
4356;DHT22;64374;51.482;7.408;2023-02-20T05:36:56;8.30;99.90
4356;DHT22;64374;51.482;7.408;2023-02-20T05:39:24;8.30;99.90
4356;DHT22;64374;51.482;7.408;2023-02-20T05:41:52;8.40;99.90
4356;DHT22;64374;51.482;7.408;2023-02-20T05:44:21;8.30;99.90
4356;DHT22;64374;51.482;7.408;2023-02-20T05:46:50;8.10;99.90
4356;DHT22;64374;51.482;7.408;2023-02-20T05:49:21;8.20;99.90
4356;DHT22;64374;51.482;7.408;2023-02-20T05:51:50;8.20;99.90
4356;DHT22;64374;51.482;7.408;2023-02-20T05:54:19;8.30;99.90
4356;DHT22;64374;51.482;7.408;2023-02-20T05:56:47;8.30;99.90
4356;DHT22;64374;51.482;7.408;2023-02-20T05:59:17;8.20;99.90
4356;DHT22;64374;51.482;7.408;2023-02-20T06:01:48;8.10;99.90
4356;DHT22;64374;51.482;7.408;2023-02-20T06:04:18;8.00;99.90
4356;DHT22;64374;51.482;7.408;2023-02-20T06:06:49;8.00;99.90
4356;DHT22;64374;51.482;7.408;2023-02-20T06:09:18;8.10;99.90
4356;DHT22;64374;51.482;7.408;2023-02-20T06:11:51;8.20;99.90
4356;DHT22;64374;51.482;7.408;2023-02-20T06:14:24;8.30;99.90
4356;DHT22;64374;51.482;7.408;2023-02-20T06:16:55;8.10;99.90
4356;DHT22;64374;51.482;7.408;2023-02-20T06:19:25;8.10;99.90
4356;DHT22;64374;51.482;7.408;2023-02-20T06:21:53;8.00;99.90
4356;DHT22;64374;51.482;7.408;2023-02-20T06:24:25;8.30;99.90
4356;DHT22;64374;51.482;7.408;2023-02-20T06:26:53;8.30;99.90
4356;DHT22;64374;51.482;7.408;2023-02-20T06:29:23;8.40;99.90
4356;DHT22;64374;51.482;7.408;2023-02-20T06:31:56;8.00;99.90
4356;DHT22;64374;51.482;7.408;2023-02-20T06:34:25;7.90;99.90
4356;DHT22;64374;51.482;7.408;2023-02-20T06:36:59;7.80;99.90
4356;DHT22;64374;51.482;7.408;2023-02-20T06:39:30;7.90;99.90
4356;DHT22;64374;51.482;7.408;2023-02-20T06:41:59;7.70;99.90
4356;DHT22;64374;51.482;7.408;2023-02-20T06:44:27;7.70;99.90
4356;DHT22;64374;51.482;7.408;2023-02-20T06:46:58;7.60;99.90
4356;DHT22;64374;51.482;7.408;2023-02-20T06:49:28;7.40;99.90
4356;DHT22;64374;51.482;7.408;2023-02-20T06:51:57;7.60;99.90
4356;DHT22;64374;51.482;7.408;2023-02-20T06:54:25;7.80;99.90
4356;DHT22;64374;51.482;7.408;2023-02-20T06:56:54;7.70;99.90
4356;DHT22;64374;51.482;7.408;2023-02-20T06:59:23;7.40;99.90
4356;DHT22;64374;51.482;7.408;2023-02-20T07:01:53;7.50;99.90
4356;DHT22;64374;51.482;7.408;2023-02-20T07:04:24;7.50;99.90
4356;DHT22;64374;51.482;7.408;2023-02-20T07:06:54;7.40;99.90
4356;DHT22;64374;51.482;7.408;2023-02-20T07:09:22;7.40;99.90
4356;DHT22;64374;51.482;7.408;2023-02-20T07:11:54;7.60;99.90
4356;DHT22;64374;51.482;7.408;2023-02-20T07:14:23;7.50;99.90
4356;DHT22;64374;51.482;7.408;2023-02-20T07:16:51;7.40;99.90
4356;DHT22;64374;51.482;7.408;2023-02-20T07:19:19;7.60;99.90
4356;DHT22;64374;51.482;7.408;2023-02-20T07:21:49;7.50;99.90
4356;DHT22;64374;51.482;7.408;2023-02-20T07:24:21;7.40;99.90
4356;DHT22;64374;51.482;7.408;2023-02-20T07:26:49;7.30;99.90
4356;DHT22;64374;51.482;7.408;2023-02-20T07:29:17;7.10;99.90
4356;DHT22;64374;51.482;7.408;2023-02-20T07:31:46;7.10;99.90
4356;DHT22;64374;51.482;7.408;2023-02-20T07:34:14;7.30;99.90
4356;DHT22;64374;51.482;7.408;2023-02-20T07:36:45;7.20;99.90
4356;DHT22;64374;51.482;7.408;2023-02-20T07:39:15;7.00;99.90
4356;DHT22;64374;51.482;7.408;2023-02-20T07:41:44;7.20;99.90
4356;DHT22;64374;51.482;7.408;2023-02-20T07:44:36;7.00;99.90
4356;DHT22;64374;51.482;7.408;2023-02-20T07:47:05;7.00;99.90
4356;DHT22;64374;51.482;7.408;2023-02-20T07:49:35;7.20;99.90
4356;DHT22;64374;51.482;7.408;2023-02-20T07:52:04;7.10;99.90
4356;DHT22;64374;51.482;7.408;2023-02-20T07:54:34;7.10;99.90
4356;DHT22;64374;51.482;7.408;2023-02-20T07:57:02;7.30;99.90
4356;DHT22;64374;51.482;7.408;2023-02-20T07:59:30;7.30;99.90
4356;DHT22;64374;51.482;7.408;2023-02-20T08:01:58;7.10;99.90
4356;DHT22;64374;51.482;7.408;2023-02-20T08:04:27;7.20;99.90
4356;DHT22;64374;51.482;7.408;2023-02-20T08:06:55;7.20;99.90
4356;DHT22;64374;51.482;7.408;2023-02-20T08:09:23;7.20;99.90
4356;DHT22;64374;51.482;7.408;2023-02-20T08:11:56;7.40;99.90
4356;DHT22;64374;51.482;7.408;2023-02-20T08:14:24;7.40;99.90
4356;DHT22;64374;51.482;7.408;2023-02-20T08:16:54;7.60;99.90
4356;DHT22;64374;51.482;7.408;2023-02-20T08:19:22;7.60;99.90
4356;DHT22;64374;51.482;7.408;2023-02-20T08:21:51;7.60;99.90
4356;DHT22;64374;51.482;7.408;2023-02-20T08:24:20;7.50;99.90
4356;DHT22;64374;51.482;7.408;2023-02-20T08:26:49;7.70;99.90
4356;DHT22;64374;51.482;7.408;2023-02-20T08:29:18;7.40;99.90
4356;DHT22;64374;51.482;7.408;2023-02-20T08:31:47;7.40;99.90
4356;DHT22;64374;51.482;7.408;2023-02-20T08:34:15;7.50;99.90
4356;DHT22;64374;51.482;7.408;2023-02-20T08:36:45;7.50;99.90
4356;DHT22;64374;51.482;7.408;2023-02-20T08:39:13;7.40;99.90
4356;DHT22;64374;51.482;7.408;2023-02-20T08:41:42;7.30;99.90
4356;DHT22;64374;51.482;7.408;2023-02-20T08:44:11;7.50;99.90
4356;DHT22;64374;51.482;7.408;2023-02-20T08:46:47;7.20;99.90
4356;DHT22;64374;51.482;7.408;2023-02-20T08:49:16;7.10;99.90
4356;DHT22;64374;51.482;7.408;2023-02-20T08:51:52;7.30;99.90
4356;DHT22;64374;51.482;7.408;2023-02-20T08:54:21;7.20;99.90
4356;DHT22;64374;51.482;7.408;2023-02-20T08:56:49;7.30;99.90
4356;DHT22;64374;51.482;7.408;2023-02-20T08:59:18;7.60;99.90
4356;DHT22;64374;51.482;7.408;2023-02-20T09:01:47;7.50;99.90
4356;DHT22;64374;51.482;7.408;2023-02-20T09:04:15;7.50;99.90
4356;DHT22;64374;51.482;7.408;2023-02-20T09:06:46;7.40;99.90
4356;DHT22;64374;51.482;7.408;2023-02-20T09:09:15;7.40;99.90
4356;DHT22;64374;51.482;7.408;2023-02-20T09:11:43;7.50;99.90
4356;DHT22;64374;51.482;7.408;2023-02-20T09:14:11;7.50;99.90
4356;DHT22;64374;51.482;7.408;2023-02-20T09:16:41;7.40;99.90
4356;DHT22;64374;51.482;7.408;2023-02-20T09:19:11;7.40;99.90
4356;DHT22;64374;51.482;7.408;2023-02-20T09:21:44;7.40;99.90
4356;DHT22;64374;51.482;7.408;2023-02-20T09:24:12;7.30;99.90
4356;DHT22;64374;51.482;7.408;2023-02-20T09:26:40;7.40;99.90
4356;DHT22;64374;51.482;7.408;2023-02-20T09:29:10;7.30;99.90
4356;DHT22;64374;51.482;7.408;2023-02-20T09:31:38;7.30;99.90
4356;DHT22;64374;51.482;7.408;2023-02-20T09:34:07;7.30;99.90
4356;DHT22;64374;51.482;7.408;2023-02-20T09:36:37;7.50;99.90
4356;DHT22;64374;51.482;7.408;2023-02-20T09:39:06;7.60;99.90
4356;DHT22;64374;51.482;7.408;2023-02-20T09:41:44;7.50;99.90
4356;DHT22;64374;51.482;7.408;2023-02-20T09:44:22;7.30;99.90
4356;DHT22;64374;51.482;7.408;2023-02-20T09:46:55;7.50;99.90
4356;DHT22;64374;51.482;7.408;2023-02-20T09:49:30;7.60;99.90
4356;DHT22;64374;51.482;7.408;2023-02-20T09:52:08;7.40;99.90
4356;DHT22;64374;51.482;7.408;2023-02-20T09:54:40;7.60;99.90
4356;DHT22;64374;51.482;7.408;2023-02-20T09:57:15;7.40;99.90
4356;DHT22;64374;51.482;7.408;2023-02-20T09:59:48;7.50;99.90
4356;DHT22;64374;51.482;7.408;2023-02-20T10:02:21;7.50;99.90
4356;DHT22;64374;51.482;7.408;2023-02-20T10:04:51;7.50;99.90
4356;DHT22;64374;51.482;7.408;2023-02-20T10:07:33;7.30;99.90
4356;DHT22;64374;51.482;7.408;2023-02-20T10:10:18;7.50;99.90
4356;DHT22;64374;51.482;7.408;2023-02-20T10:12:58;7.30;99.90
4356;DHT22;64374;51.482;7.408;2023-02-20T10:15:33;7.40;99.90
4356;DHT22;64374;51.482;7.408;2023-02-20T10:18:13;7.60;99.90
4356;DHT22;64374;51.482;7.408;2023-02-20T10:20:51;7.60;99.90
4356;DHT22;64374;51.482;7.408;2023-02-20T10:23:34;7.70;99.90
4356;DHT22;64374;51.482;7.408;2023-02-20T10:26:08;7.60;99.90
4356;DHT22;64374;51.482;7.408;2023-02-20T10:28:39;7.90;99.90
4356;DHT22;64374;51.482;7.408;2023-02-20T10:31:14;7.90;99.90
4356;DHT22;64374;51.482;7.408;2023-02-20T10:33:47;7.80;99.90
4356;DHT22;64374;51.482;7.408;2023-02-20T10:36:21;7.80;99.90
4356;DHT22;64374;51.482;7.408;2023-02-20T10:38:57;7.60;99.90
4356;DHT22;64374;51.482;7.408;2023-02-20T10:41:31;7.70;99.90
4356;DHT22;64374;51.482;7.408;2023-02-20T10:44:06;7.60;99.90
4356;DHT22;64374;51.482;7.408;2023-02-20T10:46:41;7.90;99.90
4356;DHT22;64374;51.482;7.408;2023-02-20T10:49:20;8.10;99.90
4356;DHT22;64374;51.482;7.408;2023-02-20T10:51:55;8.10;99.90
4356;DHT22;64374;51.482;7.408;2023-02-20T10:54:32;7.80;99.90
4356;DHT22;64374;51.482;7.408;2023-02-20T10:57:09;7.80;99.90
4356;DHT22;64374;51.482;7.408;2023-02-20T10:59:41;7.80;99.90
4356;DHT22;64374;51.482;7.408;2023-02-20T11:02:15;7.90;99.90
4356;DHT22;64374;51.482;7.408;2023-02-20T11:04:50;8.10;99.90
4356;DHT22;64374;51.482;7.408;2023-02-20T11:07:20;7.90;99.90
4356;DHT22;64374;51.482;7.408;2023-02-20T11:09:51;7.70;99.90
4356;DHT22;64374;51.482;7.408;2023-02-20T11:12:26;7.80;99.90
4356;DHT22;64374;51.482;7.408;2023-02-20T11:15:00;7.70;99.90
4356;DHT22;64374;51.482;7.408;2023-02-20T11:17:33;7.80;99.90
4356;DHT22;64374;51.482;7.408;2023-02-20T11:20:07;8.10;99.90
4356;DHT22;64374;51.482;7.408;2023-02-20T11:22:54;8.10;99.90
4356;DHT22;64374;51.482;7.408;2023-02-20T11:25:27;8.10;99.90
4356;DHT22;64374;51.482;7.408;2023-02-20T11:27:57;8.20;99.90
4356;DHT22;64374;51.482;7.408;2023-02-20T11:30:33;8.20;99.90
4356;DHT22;64374;51.482;7.408;2023-02-20T11:33:04;8.20;99.90
4356;DHT22;64374;51.482;7.408;2023-02-20T11:35:38;8.20;99.90
4356;DHT22;64374;51.482;7.408;2023-02-20T11:38:32;8.20;99.90
4356;DHT22;64374;51.482;7.408;2023-02-20T11:41:10;8.20;99.90
4356;DHT22;64374;51.482;7.408;2023-02-20T11:43:43;8.20;99.90
4356;DHT22;64374;51.482;7.408;2023-02-20T11:46:27;8.20;99.90
4356;DHT22;64374;51.482;7.408;2023-02-20T11:49:01;8.30;99.90
4356;DHT22;64374;51.482;7.408;2023-02-20T11:51:36;8.40;99.90
4356;DHT22;64374;51.482;7.408;2023-02-20T11:54:11;8.30;99.90
4356;DHT22;64374;51.482;7.408;2023-02-20T11:57:01;8.50;99.90
4356;DHT22;64374;51.482;7.408;2023-02-20T11:59:37;8.50;99.90
4356;DHT22;64374;51.482;7.408;2023-02-20T12:02:12;8.50;99.90
4356;DHT22;64374;51.482;7.408;2023-02-20T12:04:59;8.50;99.90
4356;DHT22;64374;51.482;7.408;2023-02-20T12:07:35;8.70;99.90
4356;DHT22;64374;51.482;7.408;2023-02-20T12:10:19;8.80;99.90
4356;DHT22;64374;51.482;7.408;2023-02-20T12:12:51;9.00;99.90
4356;DHT22;64374;51.482;7.408;2023-02-20T12:15:22;8.70;99.90
4356;DHT22;64374;51.482;7.408;2023-02-20T12:18:18;8.80;99.90
4356;DHT22;64374;51.482;7.408;2023-02-20T12:20:55;9.00;99.90
4356;DHT22;64374;51.482;7.408;2023-02-20T12:23:32;8.80;99.90
4356;DHT22;64374;51.482;7.408;2023-02-20T12:26:12;8.90;99.90
4356;DHT22;64374;51.482;7.408;2023-02-20T12:28:51;9.00;99.90
4356;DHT22;64374;51.482;7.408;2023-02-20T12:31:26;9.10;99.90
4356;DHT22;64374;51.482;7.408;2023-02-20T12:34:15;8.90;99.90
4356;DHT22;64374;51.482;7.408;2023-02-20T12:36:49;8.70;99.90
4356;DHT22;64374;51.482;7.408;2023-02-20T12:39:25;8.50;99.90
4356;DHT22;64374;51.482;7.408;2023-02-20T12:42:04;8.40;99.90
4356;DHT22;64374;51.482;7.408;2023-02-20T12:44:53;8.60;99.90
4356;DHT22;64374;51.482;7.408;2023-02-20T12:47:29;8.60;99.90
4356;DHT22;64374;51.482;7.408;2023-02-20T12:53:16;8.70;99.90
4356;DHT22;64374;51.482;7.408;2023-02-20T12:56:05;8.70;99.90
4356;DHT22;64374;51.482;7.408;2023-02-20T12:58:44;8.60;99.90
4356;DHT22;64374;51.482;7.408;2023-02-20T13:01:18;8.30;99.90
4356;DHT22;64374;51.482;7.408;2023-02-20T13:04:16;8.20;99.90
4356;DHT22;64374;51.482;7.408;2023-02-20T13:06:51;8.20;99.90
4356;DHT22;64374;51.482;7.408;2023-02-20T13:09:24;8.20;99.90
4356;DHT22;64374;51.482;7.408;2023-02-20T13:12:01;8.30;99.90
4356;DHT22;64374;51.482;7.408;2023-02-20T13:14:53;8.40;99.90
4356;DHT22;64374;51.482;7.408;2023-02-20T13:17:31;8.50;99.90
4356;DHT22;64374;51.482;7.408;2023-02-20T13:20:10;8.40;99.90
4356;DHT22;64374;51.482;7.408;2023-02-20T13:22:58;8.40;99.90
4356;DHT22;64374;51.482;7.408;2023-02-20T13:25:35;8.50;99.90
4356;DHT22;64374;51.482;7.408;2023-02-20T13:28:28;8.50;99.90
4356;DHT22;64374;51.482;7.408;2023-02-20T13:31:09;8.50;99.90
4356;DHT22;64374;51.482;7.408;2023-02-20T13:33:41;8.70;99.90
4356;DHT22;64374;51.482;7.408;2023-02-20T13:36:39;8.60;99.90
4356;DHT22;64374;51.482;7.408;2023-02-20T13:39:39;8.40;99.90
4356;DHT22;64374;51.482;7.408;2023-02-20T13:42:28;8.60;99.90
4356;DHT22;64374;51.482;7.408;2023-02-20T13:44:57;8.60;99.90
4356;DHT22;64374;51.482;7.408;2023-02-20T13:47:32;8.60;99.90
4356;DHT22;64374;51.482;7.408;2023-02-20T13:50:31;8.70;99.90
4356;DHT22;64374;51.482;7.408;2023-02-20T13:53:03;8.70;99.90
4356;DHT22;64374;51.482;7.408;2023-02-20T13:55:32;8.70;99.90
4356;DHT22;64374;51.482;7.408;2023-02-20T13:58:10;8.70;99.90
4356;DHT22;64374;51.482;7.408;2023-02-20T14:00:53;8.60;99.90
4356;DHT22;64374;51.482;7.408;2023-02-20T14:03:24;8.50;99.90
4356;DHT22;64374;51.482;7.408;2023-02-20T14:06:17;8.80;99.90
4356;DHT22;64374;51.482;7.408;2023-02-20T14:08:48;8.60;99.90
4356;DHT22;64374;51.482;7.408;2023-02-20T14:11:25;8.70;99.90
4356;DHT22;64374;51.482;7.408;2023-02-20T14:13:55;8.60;99.90
4356;DHT22;64374;51.482;7.408;2023-02-20T14:16:30;8.60;99.90
4356;DHT22;64374;51.482;7.408;2023-02-20T14:19:00;8.40;99.90
4356;DHT22;64374;51.482;7.408;2023-02-20T14:21:32;8.50;99.90
4356;DHT22;64374;51.482;7.408;2023-02-20T14:24:15;8.70;99.90
4356;DHT22;64374;51.482;7.408;2023-02-20T14:26:45;8.80;99.90
4356;DHT22;64374;51.482;7.408;2023-02-20T14:29:27;8.80;99.90
4356;DHT22;64374;51.482;7.408;2023-02-20T14:31:57;8.80;99.90
4356;DHT22;64374;51.482;7.408;2023-02-20T14:34:29;8.90;99.90
4356;DHT22;64374;51.482;7.408;2023-02-20T14:37:07;8.70;99.90
4356;DHT22;64374;51.482;7.408;2023-02-20T14:39:46;8.80;99.90
4356;DHT22;64374;51.482;7.408;2023-02-20T14:42:19;8.80;99.90
4356;DHT22;64374;51.482;7.408;2023-02-20T14:44:56;8.90;99.90
4356;DHT22;64374;51.482;7.408;2023-02-20T14:47:25;8.80;99.90
4356;DHT22;64374;51.482;7.408;2023-02-20T14:49:58;8.90;99.90
4356;DHT22;64374;51.482;7.408;2023-02-20T14:52:36;9.10;99.90
4356;DHT22;64374;51.482;7.408;2023-02-20T14:55:05;9.10;99.90
4356;DHT22;64374;51.482;7.408;2023-02-20T14:57:33;9.20;99.90
4356;DHT22;64374;51.482;7.408;2023-02-20T15:00:32;9.00;99.90
4356;DHT22;64374;51.482;7.408;2023-02-20T15:03:06;8.90;99.90
4356;DHT22;64374;51.482;7.408;2023-02-20T15:05:58;8.80;99.90
4356;DHT22;64374;51.482;7.408;2023-02-20T15:08:31;8.50;99.90
4356;DHT22;64374;51.482;7.408;2023-02-20T15:11:07;8.50;99.90
4356;DHT22;64374;51.482;7.408;2023-02-20T15:13:39;8.70;99.90
4356;DHT22;64374;51.482;7.408;2023-02-20T15:16:13;8.70;99.90
4356;DHT22;64374;51.482;7.408;2023-02-20T15:18:46;8.80;99.90
4356;DHT22;64374;51.482;7.408;2023-02-20T15:21:33;9.00;99.90
4356;DHT22;64374;51.482;7.408;2023-02-20T15:24:25;9.10;99.90
4356;DHT22;64374;51.482;7.408;2023-02-20T15:27:06;9.20;99.90
4356;DHT22;64374;51.482;7.408;2023-02-20T15:29:35;9.00;99.90
4356;DHT22;64374;51.482;7.408;2023-02-20T15:32:05;9.10;99.90
4356;DHT22;64374;51.482;7.408;2023-02-20T15:34:42;9.10;99.90
4356;DHT22;64374;51.482;7.408;2023-02-20T15:37:20;9.20;99.90
4356;DHT22;64374;51.482;7.408;2023-02-20T15:40:15;9.30;99.90
4356;DHT22;64374;51.482;7.408;2023-02-20T15:42:44;9.50;99.90
4356;DHT22;64374;51.482;7.408;2023-02-20T15:45:14;9.20;99.90
4356;DHT22;64374;51.482;7.408;2023-02-20T15:47:42;9.20;99.90
4356;DHT22;64374;51.482;7.408;2023-02-20T15:50:11;9.20;99.90
4356;DHT22;64374;51.482;7.408;2023-02-20T15:52:40;9.10;99.90
4356;DHT22;64374;51.482;7.408;2023-02-20T15:55:13;9.20;99.90
4356;DHT22;64374;51.482;7.408;2023-02-20T15:57:44;9.40;99.90
4356;DHT22;64374;51.482;7.408;2023-02-20T16:00:18;9.20;99.90
4356;DHT22;64374;51.482;7.408;2023-02-20T16:02:52;9.20;99.90
4356;DHT22;64374;51.482;7.408;2023-02-20T16:05:23;9.10;99.90
4356;DHT22;64374;51.482;7.408;2023-02-20T16:07:52;9.30;99.90
4356;DHT22;64374;51.482;7.408;2023-02-20T16:10:22;9.20;99.90
4356;DHT22;64374;51.482;7.408;2023-02-20T16:12:54;9.20;99.90
4356;DHT22;64374;51.482;7.408;2023-02-20T16:15:22;9.10;99.90
4356;DHT22;64374;51.482;7.408;2023-02-20T16:17:51;9.20;99.90
4356;DHT22;64374;51.482;7.408;2023-02-20T16:20:22;9.40;99.90
4356;DHT22;64374;51.482;7.408;2023-02-20T16:22:51;9.40;99.90
4356;DHT22;64374;51.482;7.408;2023-02-20T16:25:22;9.30;99.90
4356;DHT22;64374;51.482;7.408;2023-02-20T16:27:52;9.30;99.90
4356;DHT22;64374;51.482;7.408;2023-02-20T16:30:26;9.40;99.90
4356;DHT22;64374;51.482;7.408;2023-02-20T16:33:00;9.40;99.90
4356;DHT22;64374;51.482;7.408;2023-02-20T16:35:29;9.30;99.90
4356;DHT22;64374;51.482;7.408;2023-02-20T16:37:57;9.20;99.90
4356;DHT22;64374;51.482;7.408;2023-02-20T16:40:26;9.20;99.90
4356;DHT22;64374;51.482;7.408;2023-02-20T16:42:55;9.10;99.90
4356;DHT22;64374;51.482;7.408;2023-02-20T16:45:23;9.30;99.90
4356;DHT22;64374;51.482;7.408;2023-02-20T16:47:53;9.40;99.90
4356;DHT22;64374;51.482;7.408;2023-02-20T16:50:24;9.40;99.90
4356;DHT22;64374;51.482;7.408;2023-02-20T16:52:57;9.40;99.90
4356;DHT22;64374;51.482;7.408;2023-02-20T16:55:31;9.40;99.90
4356;DHT22;64374;51.482;7.408;2023-02-20T16:58:00;9.40;99.90